Time;durP1;ratioP1;P1;durP2;ratioP2;P2;SDS_P1;SDS_P2;PMS_P1;PMS_P2;Temp;Humidity;BMP_temperature;BMP_pressure;BME280_temperature;BME280_humidity;BME280_pressure;Samples;Min_cycle;Max_cycle;Signal;HPM_P1;HPM_P2
2022/12/01 00:01:34;;;;;;;20.60;10.77;;;;;;;3.16;100.00;152176.66;4967335;28;20465;-76
2022/12/01 00:04:19;;;;;;;18.53;11.57;;;;;;;3.04;100.00;152147.03;4966776;28;20444;-76
2022/12/01 00:07:04;;;;;;;22.03;11.90;;;;;;;3.10;100.00;152159.94;4959725;28;20438;-76
2022/12/01 00:12:53;;;;;;;17.10;10.03;;;;;;;3.08;100.00;152156.06;4975510;28;20854;-75
2022/12/01 00:15:39;;;;;;;18.13;11.67;;;;;;;3.12;100.00;152166.38;4976395;28;20972;-76
2022/12/01 00:18:24;;;;;;;19.50;12.03;;;;;;;3.01;100.00;152138.06;4974440;28;20525;-77
2022/12/01 00:21:13;;;;;;;19.30;12.40;;;;;;;3.05;100.00;152149.63;4985198;28;20457;-75
2022/12/01 00:23:59;;;;;;;15.90;10.33;;;;;;;3.09;100.00;152158.66;4996296;28;20418;-75
2022/12/01 00:26:44;;;;;;;14.20;11.40;;;;;;;3.02;100.00;152140.59;4993766;28;20569;-76
2022/12/01 00:29:29;;;;;;;20.10;11.33;;;;;;;3.11;100.00;152163.78;4956487;28;20453;-75
2022/12/01 00:32:16;;;;;;;21.80;11.73;;;;;;;3.04;100.00;152145.78;4974790;28;20441;-76
2022/12/01 00:35:02;;;;;;;20.60;12.07;;;;;;;3.06;100.00;152150.91;4974390;28;20544;-75
2022/12/01 00:37:47;;;;;;;19.10;12.27;;;;;;;3.01;100.00;152138.06;4969620;28;20466;-76
2022/12/01 00:40:33;;;;;;;14.83;10.73;;;;;;;2.98;100.00;152130.31;4974956;28;20957;-75
2022/12/01 00:43:19;;;;;;;21.77;13.10;;;;;;;3.01;100.00;152138.06;4975795;28;21006;-75
2022/12/01 00:46:04;;;;;;;19.50;12.50;;;;;;;3.09;100.00;152158.66;4978615;28;20557;-75
2022/12/01 00:48:51;;;;;;;18.57;12.53;;;;;;;2.97;100.00;152129.03;4995029;28;20417;-75
2022/12/01 00:51:36;;;;;;;19.13;11.77;;;;;;;3.09;100.00;152158.66;4991805;28;20884;-75
2022/12/01 00:54:22;;;;;;;18.80;11.73;;;;;;;2.94;100.00;152120.00;4988569;28;20819;-75
2022/12/01 00:57:07;;;;;;;19.17;12.20;;;;;;;2.92;100.00;152114.88;4983540;28;20567;-75
2022/12/01 00:59:53;;;;;;;18.90;11.67;;;;;;;2.88;100.00;152105.91;4986330;28;20453;-76
2022/12/01 01:02:38;;;;;;;19.80;11.70;;;;;;;2.96;100.00;152125.19;4970438;28;20480;-75
2022/12/01 01:05:25;;;;;;;18.50;11.50;;;;;;;3.02;100.00;152140.59;4975833;28;20445;-75
2022/12/01 01:08:13;;;;;;;18.80;11.80;;;;;;;3.05;100.00;152149.63;4975183;28;20406;-75
2022/12/01 01:11:00;;;;;;;16.67;10.40;;;;;;;3.04;100.00;152145.78;4975628;28;20509;-75
2022/12/01 01:13:45;;;;;;;21.27;13.70;;;;;;;2.98;100.00;152130.31;4985891;28;20584;-75
2022/12/01 01:16:30;;;;;;;20.20;11.43;;;;;;;2.96;100.00;152125.19;4978320;28;20425;-75
2022/12/01 01:19:16;;;;;;;18.53;11.60;;;;;;;2.94;100.00;152120.00;4994959;28;20448;-75
2022/12/01 01:22:03;;;;;;;18.83;12.73;;;;;;;2.89;100.00;152107.16;4995410;28;20804;-75
2022/12/01 01:24:48;;;;;;;21.07;12.00;;;;;;;2.91;100.00;152112.34;4980391;28;20903;-75
2022/12/01 01:27:34;;;;;;;19.37;11.30;;;;;;;2.92;100.00;152116.16;4983937;28;20449;-75
2022/12/01 01:30:19;;;;;;;19.40;12.30;;;;;;;2.89;100.00;152107.16;5000314;28;20461;-75
2022/12/01 01:33:05;;;;;;;18.47;12.23;;;;;;;2.88;100.00;152104.59;4988518;28;20922;-75
2022/12/01 01:35:50;;;;;;;17.57;11.10;;;;;;;2.78;100.00;152078.88;4984708;28;21002;-75
2022/12/01 01:38:37;;;;;;;15.23;10.90;;;;;;;2.81;100.00;152087.84;4981759;28;20596;-76
2022/12/01 01:41:23;;;;;;;19.40;10.97;;;;;;;2.84;100.00;152094.28;5009232;28;20447;-75
2022/12/01 01:44:41;;;;;;;19.63;11.67;;;;;;;2.83;100.00;152091.75;4987281;28;20436;-75
2022/12/01 01:47:30;;;;;;;19.70;12.13;;;;;;;2.78;100.00;152078.88;4985685;28;21035;-76
2022/12/01 01:50:16;;;;;;;19.07;11.87;;;;;;;2.79;100.00;152082.72;4994483;28;20410;-76
2022/12/01 01:53:04;;;;;;;20.70;12.63;;;;;;;2.81;100.00;152087.84;4997048;28;20541;-75
2022/12/01 01:55:52;;;;;;;21.00;12.87;;;;;;;2.83;100.00;152091.75;4983237;28;20616;-75
2022/12/01 01:58:38;;;;;;;18.37;12.73;;;;;;;2.80;100.00;152084.03;5001505;28;20919;-75
2022/12/01 02:01:23;;;;;;;20.87;12.77;;;;;;;2.83;100.00;152091.75;4998113;28;20452;-75
2022/12/01 02:04:09;;;;;;;18.03;11.33;;;;;;;2.79;100.00;152081.44;4984241;28;20452;-76
2022/12/01 02:06:54;;;;;;;19.17;12.43;;;;;;;2.79;100.00;152082.72;5006380;28;20423;-75
2022/12/01 02:09:40;;;;;;;17.77;12.03;;;;;;;2.83;100.00;152093.00;5005667;28;20433;-76
2022/12/01 02:12:53;;;;;;;16.67;11.30;;;;;;;2.77;100.00;152077.59;4990907;28;20479;-75
2022/12/01 02:15:44;;;;;;;16.43;10.93;;;;;;;2.74;100.00;152069.88;4974087;28;20446;-75
2022/12/01 02:18:37;;;;;;;18.50;11.57;;;;;;;2.71;100.00;152062.16;4974270;28;20411;-76
2022/12/01 02:21:31;;;;;;;16.77;12.50;;;;;;;2.75;100.00;152071.16;4978131;28;20821;-75
2022/12/01 02:24:47;;;;;;;17.40;11.37;;;;;;;2.68;100.00;152053.13;4990348;28;21015;-75
2022/12/01 02:27:44;;;;;;;19.90;12.20;;;;;;;2.63;100.00;152041.56;4995080;28;20976;-76
2022/12/01 02:30:36;;;;;;;20.00;13.23;;;;;;;2.64;100.00;152044.16;4990847;28;20445;-76
2022/12/01 02:33:25;;;;;;;19.07;11.90;;;;;;;2.68;100.00;152053.13;4998241;28;20468;-75
2022/12/01 02:36:16;;;;;;;18.47;12.10;;;;;;;2.63;100.00;152040.25;4993702;28;20619;-75
2022/12/01 02:39:07;;;;;;;21.10;11.00;;;;;;;2.65;100.00;152045.44;4990807;28;20947;-76
2022/12/01 02:41:54;;;;;;;20.10;12.37;;;;;;;2.66;100.00;152048.00;4982019;28;20461;-76
2022/12/01 02:44:42;;;;;;;20.67;12.60;;;;;;;2.78;100.00;152078.88;4990745;28;20480;-76
2022/12/01 02:47:29;;;;;;;18.93;11.50;;;;;;;2.69;100.00;152057.00;4992742;28;20503;-75
2022/12/01 02:50:15;;;;;;;22.50;12.10;;;;;;;2.64;100.00;152044.16;4989176;28;20453;-75
2022/12/01 02:53:01;;;;;;;19.27;12.00;;;;;;;2.64;100.00;152042.84;5008115;28;20420;-76
2022/12/01 02:55:48;;;;;;;18.83;10.57;;;;;;;2.64;100.00;152042.84;4978187;28;20540;-75
2022/12/01 02:58:33;;;;;;;22.57;12.57;;;;;;;2.72;100.00;152064.75;4991307;28;20598;-75
2022/12/01 03:01:31;;;;;;;18.30;11.40;;;;;;;2.72;100.00;152063.44;4989031;28;20451;-75
2022/12/01 03:04:31;;;;;;;19.83;12.80;;;;;;;2.65;100.00;152045.44;4990498;28;20983;-75
2022/12/01 03:07:36;;;;;;;17.23;11.60;;;;;;;2.58;100.00;152027.41;4992956;28;20995;-75
2022/12/01 03:10:25;;;;;;;20.83;12.17;;;;;;;2.56;100.00;152023.56;4980147;28;20458;-76
2022/12/01 03:13:19;;;;;;;19.20;12.30;;;;;;;2.63;100.00;152040.25;4963785;28;20488;-75
2022/12/01 03:16:08;;;;;;;16.30;11.37;;;;;;;2.55;100.00;152019.69;4991392;28;20653;-75
2022/12/01 03:18:57;;;;;;;18.67;12.67;;;;;;;2.52;100.00;152011.97;5008624;28;20439;-76
2022/12/01 03:21:49;;;;;;;20.83;13.53;;;;;;;2.53;100.00;152015.84;5012150;28;20530;-75
2022/12/01 03:24:35;;;;;;;20.80;12.07;;;;;;;2.43;100.00;151990.13;4991374;28;20837;-76
2022/12/01 03:27:22;;;;;;;21.70;13.80;;;;;;;2.45;100.00;151996.56;4983842;28;20469;-76
2022/12/01 03:30:09;;;;;;;18.60;12.50;;;;;;;2.46;100.00;151999.09;4986023;28;20414;-77
2022/12/01 03:32:57;;;;;;;20.27;12.17;;;;;;;2.44;100.00;151993.97;4993818;28;20460;-75
2022/12/01 03:35:45;;;;;;;21.40;12.83;;;;;;;2.40;100.00;151982.41;4989660;28;20513;-77
2022/12/01 03:38:35;;;;;;;24.70;13.83;;;;;;;2.38;100.00;151978.53;4992589;28;21117;-77
2022/12/01 03:41:23;;;;;;;19.47;12.30;;;;;;;2.46;100.00;151997.84;4992350;28;20500;-77
2022/12/01 03:44:11;;;;;;;20.37;12.13;;;;;;;2.34;100.00;151968.25;4992939;28;20480;-77
2022/12/01 03:47:00;;;;;;;20.23;13.10;;;;;;;2.32;100.00;151963.13;5012075;28;20428;-77
2022/12/01 03:49:46;;;;;;;21.63;12.50;;;;;;;2.37;100.00;151976.00;4996937;28;20412;-77
2022/12/01 03:52:49;;;;;;;23.80;12.50;;;;;;;2.41;100.00;151986.25;4991751;28;21032;-77
2022/12/01 03:55:39;;;;;;;22.40;13.40;;;;;;;2.35;100.00;151970.84;4991965;28;20808;-77
2022/12/01 03:58:28;;;;;;;21.50;13.20;;;;;;;2.39;100.00;151979.81;4992415;28;20425;-77
2022/12/01 04:01:14;;;;;;;20.70;12.10;;;;;;;2.37;100.00;151976.00;4991094;28;20464;-76
2022/12/01 04:04:04;;;;;;;18.03;11.73;;;;;;;2.31;100.00;151959.25;4995806;28;20521;-76
2022/12/01 04:06:50;;;;;;;17.60;11.40;;;;;;;2.29;100.00;151955.41;5011327;28;20781;-76
2022/12/01 04:09:35;;;;;;;17.97;11.50;;;;;;;2.28;100.00;151952.81;4996223;28;21120;-76
2022/12/01 04:12:31;;;;;;;21.67;12.77;;;;;;;2.38;100.00;151978.53;5006588;28;20491;-76
2022/12/01 04:15:17;;;;;;;17.30;11.23;;;;;;;2.29;100.00;151955.41;4993539;28;20540;-76
2022/12/01 04:18:02;;;;;;;22.00;13.10;;;;;;;2.35;100.00;151969.56;4983384;28;20449;-76
2022/12/01 04:20:48;;;;;;;18.83;12.67;;;;;;;2.31;100.00;151959.25;4973170;28;20445;-76
2022/12/01 04:26:38;;;;;;;18.40;12.47;;;;;;;2.31;100.00;151960.53;4996406;28;20499;-77
2022/12/01 04:29:24;;;;;;;21.10;13.23;;;;;;;2.25;100.00;151943.84;4990135;28;20960;-77
2022/12/01 04:32:10;;;;;;;18.30;11.67;;;;;;;2.29;100.00;151955.41;5005850;28;20428;-76
2022/12/01 04:34:55;;;;;;;15.63;11.70;;;;;;;2.26;100.00;151947.69;5011550;28;20559;-76
2022/12/01 04:37:41;;;;;;;20.37;13.20;;;;;;;2.30;100.00;151957.94;4997185;28;20456;-76
2022/12/01 04:40:26;;;;;;;20.80;12.00;;;;;;;2.34;100.00;151966.97;4991198;28;20460;-76
2022/12/01 04:43:11;;;;;;;21.40;11.57;;;;;;;2.35;100.00;151969.56;4998537;28;20464;-77
2022/12/01 04:45:58;;;;;;;20.20;12.53;;;;;;;2.38;100.00;151978.53;4991721;28;20468;-76
2022/12/01 04:48:44;;;;;;;23.47;13.07;;;;;;;2.35;100.00;151969.56;4990942;28;20409;-76
2022/12/01 04:51:29;;;;;;;19.77;10.97;;;;;;;2.31;100.00;151960.53;4991789;28;20777;-76
2022/12/01 04:54:14;;;;;;;19.10;12.00;;;;;;;2.30;100.00;151956.72;4983928;28;20597;-76
2022/12/01 04:57:00;;;;;;;21.13;12.40;;;;;;;2.37;100.00;151974.69;4987104;28;20453;-76
2022/12/01 04:59:45;;;;;;;20.90;12.23;;;;;;;2.44;100.00;151993.97;4993087;28;20429;-76
2022/12/01 05:02:33;;;;;;;19.80;13.23;;;;;;;2.46;100.00;151999.09;4989694;28;20479;-77
2022/12/01 05:05:19;;;;;;;16.30;10.97;;;;;;;2.45;100.00;151995.28;4989597;28;20968;-76
2022/12/01 05:08:04;;;;;;;16.90;11.00;;;;;;;2.36;100.00;151973.41;4988960;28;20804;-76
2022/12/01 05:10:49;;;;;;;21.87;13.10;;;;;;;2.34;100.00;151966.97;4992293;28;20516;-77
2022/12/01 05:13:36;;;;;;;18.97;12.77;;;;;;;2.34;100.00;151968.25;4993776;28;20948;-76
2022/12/01 05:16:23;;;;;;;18.20;11.57;;;;;;;2.31;100.00;151960.53;4989961;28;20479;-76
2022/12/01 05:22:14;;;;;;;19.57;12.37;;;;;;;2.33;100.00;151965.66;4991541;28;20440;-85
2022/12/01 05:24:59;;;;;;;21.33;12.47;;;;;;;2.32;100.00;151963.13;4984955;28;20432;-86
2022/12/01 05:27:44;;;;;;;21.13;13.00;;;;;;;2.39;100.00;151979.81;4988617;28;20452;-86
2022/12/01 05:30:30;;;;;;;19.10;12.33;;;;;;;2.33;100.00;151965.66;4993655;28;20773;-77
2022/12/01 05:33:15;;;;;;;23.67;12.23;;;;;;;2.38;100.00;151977.28;4989465;28;20729;-86
2022/12/01 05:36:02;;;;;;;21.50;12.90;;;;;;;2.40;100.00;151983.72;4987222;28;20476;-86
2022/12/01 05:38:48;;;;;;;20.63;12.27;;;;;;;2.35;100.00;151970.84;4973151;28;20429;-86
2022/12/01 05:41:33;;;;;;;19.87;11.93;;;;;;;2.37;100.00;151974.69;4992314;28;20807;-86
2022/12/01 05:44:18;;;;;;;17.80;11.30;;;;;;;2.37;100.00;151974.69;4975153;28;20450;-85
2022/12/01 05:47:04;;;;;;;21.47;13.00;;;;;;;2.34;100.00;151968.25;4971608;28;20963;-86
2022/12/01 05:49:49;;;;;;;19.03;12.63;;;;;;;2.36;100.00;151973.41;4967990;28;20429;-85
2022/12/01 05:52:36;;;;;;;20.63;13.53;;;;;;;2.36;100.00;151973.41;4980756;28;20445;-86
2022/12/01 05:55:22;;;;;;;21.53;13.03;;;;;;;2.36;100.00;151972.09;4994176;28;20516;-86
2022/12/01 05:58:08;;;;;;;19.83;13.77;;;;;;;2.33;100.00;151965.66;4995590;28;20525;-86
2022/12/01 06:00:53;;;;;;;20.13;11.97;;;;;;;2.24;100.00;151942.56;4981132;28;20460;-86
2022/12/01 06:03:38;;;;;;;20.40;13.50;;;;;;;2.26;100.00;151947.69;4992310;28;20522;-85
2022/12/01 06:06:23;;;;;;;24.83;14.50;;;;;;;2.31;100.00;151960.53;4985950;28;20484;-86
2022/12/01 06:09:12;;;;;;;20.80;13.47;;;;;;;2.25;100.00;151945.09;5004253;28;20424;-86
2022/12/01 06:11:58;;;;;;;21.40;13.90;;;;;;;2.22;100.00;151937.44;4992241;28;20491;-86
2022/12/01 06:14:43;;;;;;;22.53;14.50;;;;;;;2.23;100.00;151939.97;4994956;28;20820;-86
2022/12/01 06:17:31;;;;;;;20.37;13.20;;;;;;;2.28;100.00;151952.81;4993961;28;20535;-86
2022/12/01 06:20:17;;;;;;;21.63;15.33;;;;;;;2.23;100.00;151938.66;4987279;28;20784;-86
2022/12/01 06:23:02;;;;;;;23.17;14.87;;;;;;;2.26;100.00;151946.41;4989287;28;20519;-85
2022/12/01 06:25:49;;;;;;;21.97;13.87;;;;;;;2.34;100.00;151966.97;4990558;28;20933;-86
2022/12/01 06:28:35;;;;;;;25.57;14.87;;;;;;;2.41;100.00;151984.97;4989252;28;20422;-86
2022/12/01 06:31:20;;;;;;;24.57;13.77;;;;;;;2.35;100.00;151970.84;4989745;28;20765;-86
2022/12/01 06:34:05;;;;;;;25.07;14.43;;;;;;;2.28;100.00;151951.53;4975619;28;20484;-85
2022/12/01 06:36:50;;;;;;;23.63;14.10;;;;;;;2.28;100.00;151952.81;4990320;28;20501;-85
2022/12/01 06:39:36;;;;;;;23.33;15.17;;;;;;;2.32;100.00;151963.13;4991602;28;20452;-85
2022/12/01 06:42:23;;;;;;;24.07;15.30;;;;;;;2.27;100.00;151950.28;5000720;28;20548;-85
2022/12/01 06:45:09;;;;;;;20.60;13.73;;;;;;;2.33;100.00;151965.66;4978488;28;20437;-85
2022/12/01 06:47:54;;;;;;;25.70;16.00;;;;;;;2.26;100.00;151947.69;5002145;28;20460;-85
2022/12/01 06:50:40;;;;;;;27.70;14.80;;;;;;;2.33;100.00;151965.66;4988486;28;20445;-84
2022/12/01 06:53:26;;;;;;;23.37;16.20;;;;;;;2.31;100.00;151960.53;4986324;28;20441;-84
2022/12/01 06:56:11;;;;;;;22.23;14.47;;;;;;;2.19;100.00;151929.72;4986569;28;20541;-85
2022/12/01 06:58:58;;;;;;;27.10;15.07;;;;;;;2.14;100.00;151916.84;4991675;28;20456;-85
2022/12/01 07:01:43;;;;;;;24.37;16.13;;;;;;;2.22;100.00;151937.44;4961659;28;20448;-84
2022/12/01 07:04:29;;;;;;;27.20;15.97;;;;;;;2.24;100.00;151941.25;4979243;28;20999;-85
2022/12/01 07:07:14;;;;;;;28.27;15.50;;;;;;;2.29;100.00;151955.41;4988817;28;20444;-84
2022/12/01 07:10:00;;;;;;;26.63;16.77;;;;;;;2.23;100.00;151939.97;4976395;28;20461;-85
2022/12/01 07:12:45;;;;;;;22.97;15.07;;;;;;;2.19;100.00;151929.72;4989889;28;20488;-84
2022/12/01 07:15:32;;;;;;;24.70;16.10;;;;;;;2.19;100.00;151928.41;4981856;28;20460;-85
2022/12/01 07:18:17;;;;;;;26.60;17.00;;;;;;;2.19;100.00;151929.72;4993400;28;20486;-85
2022/12/01 07:21:03;;;;;;;25.30;15.67;;;;;;;2.22;100.00;151937.44;4995343;28;20440;-85
2022/12/01 07:23:49;;;;;;;23.57;14.77;;;;;;;2.23;100.00;151938.66;4997037;28;20464;-86
2022/12/01 07:26:34;;;;;;;24.87;15.90;;;;;;;2.21;100.00;151933.53;4995955;28;20440;-85
2022/12/01 07:29:19;;;;;;;23.80;15.67;;;;;;;2.22;100.00;151937.44;4992963;28;20472;-85
2022/12/01 07:32:06;;;;;;;26.73;16.37;;;;;;;2.27;100.00;151950.28;4992530;28;20515;-85
2022/12/01 07:34:52;;;;;;;23.20;15.40;;;;;;;2.25;100.00;151943.84;4974244;28;21010;-85
2022/12/01 07:37:37;;;;;;;24.27;15.97;;;;;;;2.21;100.00;151933.53;4980539;28;20482;-85
2022/12/01 07:40:23;;;;;;;23.60;15.43;;;;;;;2.21;100.00;151933.53;4988563;28;20473;-85
2022/12/01 07:43:08;;;;;;;26.47;16.63;;;;;;;2.25;100.00;151945.09;4977076;28;20919;-84
2022/12/01 07:45:53;;;;;;;23.03;14.43;;;;;;;2.24;100.00;151942.56;4990747;28;20848;-85
2022/12/01 07:48:40;;;;;;;25.90;15.97;;;;;;;2.27;100.00;151948.97;4989053;28;20535;-85
2022/12/01 07:51:26;;;;;;;21.83;15.40;;;;;;;2.29;100.00;151954.13;4993709;28;20543;-84
2022/12/01 07:54:13;;;;;;;27.07;15.43;;;;;;;2.26;100.00;151947.69;4988318;28;20932;-85
2022/12/01 07:56:58;;;;;;;23.63;16.00;;;;;;;2.25;100.00;151943.84;4963581;28;20485;-84
2022/12/01 07:59:43;;;;;;;24.07;15.03;;;;;;;2.20;100.00;151932.25;4989089;28;20948;-85
2022/12/01 08:02:29;;;;;;;22.60;16.00;;;;;;;2.21;100.00;151934.84;4986402;28;20444;-84
2022/12/01 08:05:15;;;;;;;26.30;14.97;;;;;;;2.27;100.00;151950.28;4986871;28;20525;-85
2022/12/01 08:08:01;;;;;;;28.37;17.83;;;;;;;2.27;100.00;151950.28;4988289;28;20446;-85
2022/12/01 08:10:47;;;;;;;23.60;16.77;;;;;;;2.26;100.00;151947.69;4981068;28;20832;-75
2022/12/01 08:13:32;;;;;;;22.87;15.40;;;;;;;2.35;100.00;151970.84;4988142;28;20437;-75
2022/12/01 08:16:20;;;;;;;24.63;14.83;;;;;;;2.25;100.00;151945.09;4977018;28;20603;-75
2022/12/01 08:19:05;;;;;;;25.43;15.90;;;;;;;2.31;100.00;151960.53;4991022;28;20785;-85
2022/12/01 08:21:52;;;;;;;25.13;16.20;;;;;;;2.25;100.00;151945.09;4970375;28;20495;-85
2022/12/01 08:24:37;;;;;;;23.17;14.37;;;;;;;2.26;100.00;151947.69;4982331;28;20982;-85
2022/12/01 08:27:22;;;;;;;24.17;15.20;;;;;;;2.31;100.00;151960.53;4993019;28;20441;-85
2022/12/01 08:30:09;;;;;;;21.97;15.63;;;;;;;2.31;100.00;151960.53;4999712;28;20804;-85
2022/12/01 08:32:55;;;;;;;23.30;15.00;;;;;;;2.24;100.00;151942.56;4978116;28;20783;-84
2022/12/01 08:35:40;;;;;;;22.87;13.70;;;;;;;2.29;100.00;151955.41;4985312;28;20460;-85
2022/12/01 08:38:27;;;;;;;23.07;15.07;;;;;;;2.29;100.00;151954.13;4996170;28;20417;-85
2022/12/01 08:41:13;;;;;;;28.27;15.93;;;;;;;2.26;100.00;151947.69;5001177;28;20539;-85
2022/12/01 08:43:59;;;;;;;21.53;14.77;;;;;;;2.33;100.00;151964.44;4994187;28;20588;-85
2022/12/01 08:46:49;;;;;;;23.53;14.87;;;;;;;2.28;100.00;151951.53;4993974;28;20792;-85
2022/12/01 08:49:34;;;;;;;22.03;14.17;;;;;;;2.28;100.00;151952.81;4993351;28;20569;-85
2022/12/01 08:52:20;;;;;;;26.73;15.00;;;;;;;2.24;100.00;151942.56;4991518;28;20468;-84
2022/12/01 08:55:23;;;;;;;23.90;16.10;;;;;;;2.26;100.00;151947.69;4975556;28;20775;-85
2022/12/01 08:58:19;;;;;;;26.70;16.37;;;;;;;2.24;100.00;151942.56;4991112;28;20432;-84
2022/12/01 09:04:43;;;;;;;26.87;15.43;;;;;;;2.29;100.00;151955.41;4992434;28;20453;-84
2022/12/01 09:07:37;;;;;;;27.23;15.43;;;;;;;2.32;100.00;151963.13;4980814;28;20452;-84
2022/12/01 09:10:24;;;;;;;23.10;13.70;;;;;;;2.30;100.00;151957.94;4981954;28;20430;-85
2022/12/01 09:13:10;;;;;;;23.87;14.87;;;;;;;2.35;100.00;151970.84;4995524;28;20497;-84
2022/12/01 09:15:57;;;;;;;24.63;14.27;;;;;;;2.33;100.00;151965.66;4989155;28;20489;-85
2022/12/01 09:18:47;;;;;;;23.37;14.10;;;;;;;2.33;100.00;151965.66;4982269;28;20416;-84
2022/12/01 09:21:33;;;;;;;24.33;14.37;;;;;;;2.33;100.00;151965.66;4995202;28;20449;-85
2022/12/01 09:24:19;;;;;;;21.80;14.43;;;;;;;2.33;100.00;151965.66;4993229;28;21056;-86
2022/12/01 09:27:05;;;;;;;27.87;15.83;;;;;;;2.40;100.00;151983.72;4993367;28;20437;-85
2022/12/01 09:29:51;;;;;;;24.77;16.60;;;;;;;2.33;100.00;151964.44;4996152;28;20502;-84
2022/12/01 09:32:36;;;;;;;24.57;15.50;;;;;;;2.31;100.00;151960.53;4996964;28;20433;-84
2022/12/01 09:35:21;;;;;;;26.67;14.60;;;;;;;2.39;100.00;151979.81;4994704;28;20580;-84
2022/12/01 09:38:07;;;;;;;23.30;15.57;;;;;;;2.34;100.00;151968.25;4998920;28;20521;-85
2022/12/01 09:40:52;;;;;;;22.33;13.97;;;;;;;2.38;100.00;151978.53;5000730;28;20441;-85
2022/12/01 09:43:41;;;;;;;25.23;15.80;;;;;;;2.40;100.00;151983.72;4998230;28;20611;-85
2022/12/01 09:46:30;;;;;;;27.37;16.40;;;;;;;2.38;100.00;151978.53;4996382;28;20457;-85
2022/12/01 09:49:18;;;;;;;26.63;14.57;;;;;;;2.39;100.00;151981.13;4995089;28;20488;-84
2022/12/01 09:52:03;;;;;;;24.43;15.53;;;;;;;2.39;100.00;151981.13;4996034;28;21246;-85
2022/12/01 09:54:49;;;;;;;22.73;14.50;;;;;;;2.50;100.00;152006.84;4982260;28;20446;-85
2022/12/01 09:57:35;;;;;;;19.90;14.53;;;;;;;2.51;100.00;152010.72;4993339;28;20971;-85
2022/12/01 10:00:24;;;;;;;23.57;14.00;;;;;;;2.45;100.00;151996.56;4996052;28;20437;-84
2022/12/01 10:03:19;;;;;;;19.40;13.97;;;;;;;2.53;100.00;152015.84;4995547;28;20449;-84
2022/12/01 10:06:08;;;;;;;20.70;13.20;;;;;;;2.43;100.00;151990.13;4987921;28;20516;-84
2022/12/01 10:09:00;;;;;;;22.00;13.67;;;;;;;2.54;100.00;152017.16;4976176;28;20421;-84
2022/12/01 10:11:47;;;;;;;21.30;14.70;;;;;;;2.45;100.00;151996.56;4975178;28;21020;-84
2022/12/01 10:14:34;;;;;;;26.30;14.53;;;;;;;2.49;100.00;152005.53;4994384;28;20459;-85
2022/12/01 10:17:28;;;;;;;21.93;15.20;;;;;;;2.50;100.00;152006.84;4983007;28;20844;-84
2022/12/01 10:20:18;;;;;;;24.63;14.40;;;;;;;2.56;100.00;152023.56;4976173;28;20415;-84
2022/12/01 10:23:14;;;;;;;22.20;13.57;;;;;;;2.52;100.00;152013.25;4977173;28;20925;-84
2022/12/01 10:26:07;;;;;;;21.13;14.50;;;;;;;2.59;100.00;152030.00;4995076;28;20833;-85
2022/12/01 10:29:01;;;;;;;23.53;13.67;;;;;;;2.61;100.00;152035.13;4995532;28;20569;-84
2022/12/01 10:31:53;;;;;;;25.83;15.40;;;;;;;2.58;100.00;152028.72;4990296;28;21024;-84
2022/12/01 10:34:42;;;;;;;24.00;14.97;;;;;;;2.58;100.00;152028.72;4981675;28;20417;-89
2022/12/01 10:37:29;;;;;;;22.80;14.90;;;;;;;2.59;100.00;152030.00;4980343;28;21030;-85
2022/12/01 10:40:16;;;;;;;21.40;14.30;;;;;;;2.63;100.00;152040.25;4993056;28;20440;-85
2022/12/01 10:43:02;;;;;;;25.13;15.03;;;;;;;2.61;100.00;152035.13;4994254;28;20460;-84
2022/12/01 10:45:48;;;;;;;27.77;15.17;;;;;;;2.64;100.00;152044.16;4980043;28;20971;-85
2022/12/01 10:48:33;;;;;;;26.73;14.03;;;;;;;2.52;100.00;152011.97;4978920;28;20433;-85
2022/12/01 10:51:21;;;;;;;23.90;14.17;;;;;;;2.56;100.00;152023.56;4995109;28;20453;-85
2022/12/01 10:54:10;;;;;;;22.67;13.87;;;;;;;2.55;100.00;152019.69;4980000;28;20433;-86
2022/12/01 10:56:56;;;;;;;23.77;15.17;;;;;;;2.59;100.00;152030.00;4987042;28;20523;-85
2022/12/01 10:59:49;;;;;;;20.03;14.50;;;;;;;2.61;100.00;152035.13;4976486;28;20557;-85
2022/12/01 11:02:35;;;;;;;23.10;14.37;;;;;;;2.66;100.00;152048.00;4994790;28;21070;-86
2022/12/01 11:05:23;;;;;;;25.00;16.37;;;;;;;2.62;100.00;152037.72;4980997;28;20513;-85
2022/12/01 11:08:21;;;;;;;19.97;13.47;;;;;;;2.68;100.00;152053.13;4973830;28;20414;-85
2022/12/01 11:11:24;;;;;;;19.97;13.80;;;;;;;2.69;100.00;152057.00;4993686;28;20464;-85
2022/12/01 11:14:18;;;;;;;20.83;14.73;;;;;;;2.67;100.00;152050.56;4990420;28;20425;-85
2022/12/01 11:17:16;;;;;;;22.63;15.57;;;;;;;2.68;100.00;152053.13;4993959;28;20476;-85
2022/12/01 11:20:27;;;;;;;23.77;14.93;;;;;;;2.67;100.00;152050.56;4969387;28;20946;-85
2022/12/01 11:23:34;;;;;;;25.60;14.77;;;;;;;2.71;100.00;152062.16;4990127;28;20449;-86
2022/12/01 11:26:21;;;;;;;20.07;14.03;;;;;;;2.76;100.00;152075.00;4989547;28;20533;-86
2022/12/01 11:29:08;;;;;;;20.80;14.17;;;;;;;2.75;100.00;152072.47;4987945;28;20936;-85
2022/12/01 11:31:53;;;;;;;20.20;14.40;;;;;;;2.79;100.00;152081.44;4991983;28;20939;-84
2022/12/01 11:34:38;;;;;;;19.23;14.50;;;;;;;2.76;100.00;152073.72;4992044;28;20445;-84
2022/12/01 11:37:26;;;;;;;24.17;15.80;;;;;;;2.77;100.00;152076.28;4988220;28;20829;-86
2022/12/01 11:40:18;;;;;;;22.37;14.30;;;;;;;2.76;100.00;152073.72;4984459;28;20588;-84
2022/12/01 11:43:05;;;;;;;21.97;13.57;;;;;;;2.80;100.00;152084.03;4993917;28;21342;-84
2022/12/01 11:45:51;;;;;;;20.93;15.30;;;;;;;2.81;100.00;152086.56;4989900;28;20600;-85
2022/12/01 11:48:36;;;;;;;23.87;14.47;;;;;;;2.86;100.00;152100.72;4974801;28;20433;-85
2022/12/01 11:51:27;;;;;;;22.90;15.00;;;;;;;2.88;100.00;152104.59;4987777;28;20955;-85
2022/12/01 11:54:16;;;;;;;20.20;13.13;;;;;;;2.90;100.00;152109.75;4987435;28;20457;-85
2022/12/01 11:57:03;;;;;;;22.77;14.70;;;;;;;2.92;100.00;152114.88;4988807;28;20519;-84
2022/12/01 11:59:48;;;;;;;23.27;14.57;;;;;;;2.94;100.00;152121.31;4986678;28;20916;-85
2022/12/01 12:02:39;;;;;;;22.07;14.97;;;;;;;2.88;100.00;152104.59;4989882;28;20461;-84
2022/12/01 12:05:44;;;;;;;22.43;14.30;;;;;;;2.96;100.00;152125.19;4983639;28;20445;-84
2022/12/01 12:08:40;;;;;;;22.53;12.93;;;;;;;2.92;100.00;152114.88;4985051;28;20447;-85
2022/12/01 12:11:30;;;;;;;24.30;15.77;;;;;;;2.87;100.00;152102.00;4991867;28;20471;-84
2022/12/01 12:14:45;;;;;;;19.30;12.50;;;;;;;2.90;100.00;152109.75;4984144;28;20405;-85
2022/12/01 12:17:53;;;;;;;23.33;15.20;;;;;;;2.97;100.00;152127.75;4995238;28;20829;-84
2022/12/01 12:20:48;;;;;;;24.70;14.83;;;;;;;2.97;100.00;152127.75;4994539;28;20439;-84
2022/12/01 12:23:46;;;;;;;23.00;13.00;;;;;;;3.01;100.00;152138.06;4988926;28;20484;-85
2022/12/01 12:26:35;;;;;;;18.50;12.80;;;;;;;2.96;100.00;152126.50;4995123;28;20440;-85
2022/12/01 12:29:31;;;;;;;19.73;13.83;;;;;;;3.05;100.00;152149.63;4995947;28;20539;-85
2022/12/01 12:32:27;;;;;;;20.60;13.13;;;;;;;3.06;100.00;152150.91;4989421;28;21053;-84
2022/12/01 12:35:27;;;;;;;21.93;13.80;;;;;;;3.10;100.00;152159.94;4995931;28;20493;-85
2022/12/01 12:38:24;;;;;;;23.63;14.47;;;;;;;3.11;100.00;152163.78;4995065;28;20547;-85
2022/12/01 12:41:18;;;;;;;24.30;14.57;;;;;;;3.10;100.00;152161.19;5011629;28;20594;-84
2022/12/01 12:44:13;;;;;;;21.43;14.30;;;;;;;3.08;100.00;152157.34;5000109;28;20947;-89
2022/12/01 12:47:07;;;;;;;21.37;13.80;;;;;;;3.09;100.00;152158.66;5015834;28;20436;-85
2022/12/01 12:49:58;;;;;;;23.77;14.97;;;;;;;3.22;100.00;152190.81;4992537;28;20536;-85
2022/12/01 12:52:46;;;;;;;24.77;13.80;;;;;;;3.20;100.00;152186.97;4980140;28;20901;-85
2022/12/01 12:55:36;;;;;;;23.00;14.40;;;;;;;3.19;100.00;152184.38;4994388;28;20947;-85
2022/12/01 12:58:25;;;;;;;23.57;15.77;;;;;;;3.21;100.00;152188.22;4978239;28;20480;-85